Hillsboro, OH

2:54 AM EDT on August 22, 2014 (GMT -0400)
Airborne | Change Station
CLOSE
Current Station
Airport
Location: Wilmington,
Elevation: 1076 ft
Nearby Weather Stations

Elev 1076 ft 39.42 °N, 83.82 °W | Updated 1 hour ago

Light Rain
Light Rain
70 °F
Feels Like 70 °F
N
10
Wind Variable Wind from West

Today
High -- | Low -- °F
--% Chance of Precip.
Yesterday
High -- | Low -- °F
Precip. -- in
6:53 AM 8:19 PM
Waning Crescent, 10% visible
Pressure 30.01 in
Visibility 7.0 miles
Clouds Few 8500 ft
Mostly Cloudy 10000 ft
Dew Point 66 °F
Humidity 87%
Rainfall 0.26 in
Snow Depth Not available.
UV 0 out of 12
Pollen 9.10 out of 12
Air Quality Not available.
Flu Activity Not available.
METAR KILN 220554Z AUTO 27009KT 7SM -RA FEW085 BKN100 21/19 A3003 RMK AO2 LTG DSNT S TSE07B09E27 SLP163 P0014 60026 T02110189 10233 20206 58001

More Conditions Fewer Conditions

Pressure 30.01 in
Visibility 7.0 miles
Clouds Few 8500 ft
Mostly Cloudy 10000 ft
Dew Point 66 °F
Humidity 87%
Rainfall 0.26 in
Snow Depth Not available.
UV 0 out of 12
Pollen 9.10 out of 12
Air Quality Not available.
Flu Activity Not available.
METAR KILN 220554Z AUTO 27009KT 7SM -RA FEW085 BKN100 21/19 A3003 RMK AO2 LTG DSNT S TSE07B09E27 SLP163 P0014 60026 T02110189 10233 20206 58001

More Conditions Fewer Conditions

10-Day Weather Forecast

Almanac

Astronomy

Aug. 22, 2014 Rise Set
Actual Time 6:53 AM EDT 8:19 PM EDT
Civil Twilight 6:25 AM EDT 8:47 PM EDT
Nautical Twilight 5:52 AM EDT 9:21 PM EDT
Astronomical Twilight 5:16 AM EDT 9:56 PM EDT
Moon 4:16 AM EDT 6:27 PM EDT
Length of Visible Light 14h 22m
Length of Day
13h 25m
Tomorrow will be 2m 21s shorter.
Waning Crescent, 10% of the Moon is Illuminated
Today
Waning Crescent
Aug 25
New
Sep 2
First Quarter
Sep 8
Full
Sep 15
Last Quarter

Today's Extremes

State Highs State Lows

Community

WunderPhotos

Upload Photos

1,746,131 photos uploaded!

Nearby

Snow Depth

Station Depth Elevation
No new snow has been reported.

Earthquake Activity

City Distance Mag. Time & Date
No recent earthquake activity has been reported nearby.
Minimum magnitude displayed is 2.5.

Coastal Water Temperatures

Place Temperature
No Stations Reporting

Nearby Weather Stations